Bookmark and Share
Track history (hours):
 

Paganini

Last reported at 2014-Apr-16 04:18 UTC. Time now 2014-Apr-16 05:14 UTC.
Position N 38°47' W 010°07'.

Length 90 m; draft 5.9 m.

Type: Cargo ship. MMSI: 305040000.

NotesDate/timePositionNaut miles runAvg speedWind from/ knotsBaromVisibWave heightAir tempDewpointWater temp
2014-Apr-16 04:18N 38°47' W 010°07'  
2014-Apr-12 10:29N 50°04' W 002°36'9 9.9
2014-Apr-12 09:33N 50°06' W 002°22'17 8.1
2014-Apr-12 07:31N 50°11' W 001°57'6 6.6
2014-Apr-12 06:33N 50°12' W 001°48'6 6.4
2014-Apr-12 05:33N 50°14' W 001°38'7 6.7
2014-Apr-12 04:33N 50°16' W 001°28'8 7.8
2014-Apr-12 03:33N 50°18' W 001°17'9 9.2
2014-Apr-12 02:33N 50°21' W 001°03'1010.5
2014-Apr-12 01:33N 50°24' W 000°47'1110.9
2014-Apr-12 00:33N 50°27' W 000°30'1410.5
2014-Apr-11 23:15N 50°30' W 000°10'7 9.9
2014-Apr-11 22:30N 50°32' E 000°02'10 9.4
2014-Apr-11 21:27N 50°35' E 000°17'8 8.8
2014-Apr-11 20:33N 50°37' E 000°28'8 8.3
2014-Apr-11 19:33N 50°41' E 000°40'9 8.6
2014-Apr-11 18:33N 50°46' E 000°51'9 9.4
2014-Apr-11 17:33N 50°51' E 001°03'1110.7
2014-Apr-11 16:34N 50°59' E 001°16'1211.6
2014-Apr-11 15:33N 51°06' E 001°30'1110.9
2014-Apr-11 14:33N 51°13' E 001°44'10 9.5
2014-Apr-11 13:32N 51°22' E 001°51'8 8.5
2014-Apr-11 12:33N 51°29' E 001°58'8 8.3
2014-Apr-11 11:33N 51°35' E 002°06'8 8.2
2014-Apr-11 10:33N 51°41' E 002°15'8 8.2
2014-Apr-11 09:33N 51°47' E 002°24'19 9.0
2014-Apr-11 07:30N 52°01' E 002°44'54 9.0
2014-Apr-11 01:30N 52°43' E 003°39'7 7.6
2014-Apr-11 00:33N 52°49' E 003°46'8 7.6
2014-Apr-10 23:33N 52°54' E 003°54'8 8.1
2014-Apr-10 22:33N 53°01' E 004°03'9 8.9
2014-Apr-10 21:33N 53°06' E 004°15'9 9.3
2014-Apr-10 20:33N 53°13' E 004°25'9 9.5
2014-Apr-10 19:33N 53°22' E 004°32'9 9.2
2014-Apr-10 18:33N 53°29' E 004°40'8 8.5
2014-Apr-10 17:33N 53°33' E 004°53'7 7.5
2014-Apr-10 16:33N 53°36' E 005°05'7 6.8
2014-Apr-10 15:33N 53°38' E 005°16'7 6.9
2014-Apr-10 14:33N 53°40' E 005°27'7 7.2
2014-Apr-10 13:32N 53°42' E 005°38'8 7.8
2014-Apr-10 12:33N 53°45' E 005°51'10 8.6
2014-Apr-10 11:24N 53°48' E 006°07'25 8.6
2014-Apr-10 08:33N 53°54' E 006°47'8 7.9
2014-Apr-10 07:33N 53°56' E 006°60'7 7.4
2014-Apr-10 06:33N 53°58' E 007°12'7 7.1
2014-Apr-10 05:33N 53°59' E 007°24'7 6.7
2014-Apr-10 04:33N 54°00' E 007°35'7 6.8
2014-Apr-10 03:33N 54°01' E 007°47'7 7.2
2014-Apr-10 02:33N 54°01' E 007°59'8 7.8
2014-Apr-10 01:33N 54°00' E 008°12'1110.4
2014-Apr-10 00:33N 53°58' E 008°30'1212.3
2014-Apr-09 23:33N 53°51' E 008°46'1211.8
2014-Apr-09 22:33N 53°53' E 009°06'9 8.5
2014-Apr-09 21:33N 53°51' E 009°20'9 8.6
2014-Apr-09 20:33N 53°44' E 009°28'8 8.0
2014-Apr-09 19:33N 53°37' E 009°35'7 7.5
2014-Apr-09 18:33N 53°34' E 009°46'7 7.2
2014-Apr-09 17:33N 53°31' E 009°57'0 0.4
2014-Apr-09 16:31N 53°30' E 009°57'0 0.0
2014-Apr-09 15:31N 53°30' E 009°57'0 0.0
2014-Apr-09 14:28N 53°30' E 009°57'0 0.0
2014-Apr-09 13:31N 53°30' E 009°57'0 0.0
2014-Apr-09 12:28N 53°30' E 009°57'0 0.0
2014-Apr-09 11:28N 53°30' E 009°57'0 0.0
2014-Apr-09 10:31N 53°30' E 009°57'0 0.0
2014-Apr-09 09:28N 53°30' E 009°57'0 0.0
2014-Apr-09 08:31N 53°30' E 009°57'0 0.0
2014-Apr-09 07:31N 53°30' E 009°57'0 0.0
2014-Apr-09 06:31N 53°30' E 009°57'0 0.0
2014-Apr-09 05:31N 53°30' E 009°57'0 0.0
2014-Apr-09 04:28N 53°30' E 009°57'0 0.0
2014-Apr-09 03:28N 53°30' E 009°57'0 0.0
2014-Apr-09 02:28N 53°30' E 009°57'0 0.0
2014-Apr-09 01:28N 53°30' E 009°57'0 0.0
2014-Apr-09 00:31N 53°30' E 009°57'0 0.0
2014-Apr-08 23:28N 53°30' E 009°57'3 3.0
2014-Apr-08 22:34N 53°32' E 009°54'9 9.0
2014-Apr-08 21:33N 53°34' E 009°40'1010.3
2014-Apr-08 20:34N 53°42' E 009°29'1111.3
2014-Apr-08 19:33N 53°52' E 009°18'1211.7
2014-Apr-08 18:34N 53°51' E 008°58'1110.8
2014-Apr-08 17:34N 53°55' E 008°41'1211.8
2014-Apr-08 16:34N 53°59' E 008°22'10 9.8
2014-Apr-08 15:33N 53°59' E 008°06'7 7.4
2014-Apr-08 14:34N 54°03' E 007°55'8 8.1
2014-Apr-08 13:34N 54°07' E 007°43'9 8.7
2014-Apr-08 12:33N 54°15' E 007°35'10 9.7
2014-Apr-08 11:34N 54°21' E 007°22'9 9.4
2014-Apr-08 10:34N 54°26' E 007°08'9 9.3
2014-Apr-08 09:33N 54°31' E 006°54'  

Dump ship's entire track history

sailing weather and tide predictions

Paganini — V2CL8 — position and weather